Texas 商标

Spring, TX 独户式别墅出售

1927 全部出售房产 * 点击表头进行排选
发布日期 房产类型 风格 地址 价格 居住环境 地皮面积 价格/平方英尺.
2017-11-18 独户式别墅 Traditional 23126 Grand Rapids Lane Spring, TX 77373 $122,500 1,764 平方英尺. 8,276 平方英尺. $69
2017-11-18 独户式别墅 Traditional 24715 Burnaby Circle Spring, TX 77373 $295,000 4,229 平方英尺. 8,712 平方英尺. $70
2017-11-18 独户式别墅 Colonial 19 Shearwater Place Spring, TX 77381 $690,000 4,276 平方英尺. 10,454 平方英尺. $161
2017-11-18 独户式别墅 Traditional 9111 Memorial Pines Way Spring, TX 77379 $299,900 3,366 平方英尺. 8,276 平方英尺. $89
2017-11-18 独户式别墅 Traditional 238 Hazelcrest Drive Spring, TX 77382 $525,000 3,799 平方英尺. 11,326 平方英尺. $138
2017-11-18 独户式别墅 Traditional 23018 Sandpiper Trail Spring, TX 77373 $148,500 1,589 平方英尺. 5,663 平方英尺. $93
2017-11-17 独户式别墅 Traditional 22343 Bridgestone Ridge Drive Spring, TX 77388 $150,000 2,302 平方英尺. 5,663 平方英尺. $65
2017-11-17 独户式别墅 Contemporary/Modern 19939 Cypresswood Glen Spring, TX 77373 $175,000 1,592 平方英尺. 5,227 平方英尺. $110
2017-11-17 独户式别墅 Traditional 5731 Pinelake Crossing Drive Spring, TX 77379 $339,999 3,007 平方英尺. 10,454 平方英尺. $113
2017-11-17 独户式别墅 Traditional 1915 Invermere Drive Spring, TX 77386 $188,500 1,854 平方英尺. 6,970 平方英尺. $102
2017-11-17 独户式别墅 Traditional 18702 Unity Candle Trail Spring, TX 77388 $210,000 2,030 平方英尺. 3,485 平方英尺. $103
2017-11-17 独户式别墅 Traditional 3736 Forest Brook Lane Spring, TX 77386 $531,452 4,000 平方英尺. $133
2017-11-17 独户式别墅 Traditional 16114 Wimbledon Champions Drive Spring, TX 77379 $295,000 3,986 平方英尺. 8,712 平方英尺. $74
2017-11-17 独户式别墅 Traditional 115 Frosted Pond Place Spring, TX 77381 $540,000 3,664 平方英尺. 10,019 平方英尺. $147
2017-11-17 独户式别墅 Contemporary/Modern 19414 Enchanted Spring Drive Spring, TX 77388 $168,000 1,722 平方英尺. 7,405 平方英尺. $98
2017-11-17 独户式别墅 Contemporary/Modern 16103 Sir William Drive Spring, TX 77379 $115,000 3,029 平方英尺. 12,632 平方英尺. $38
2017-11-17 独户式别墅 Traditional 23315 Preserve Bend Circle Spring, TX 77389 $385,000 3,811 平方英尺. 9,583 平方英尺. $101
2017-11-17 独户式别墅 Traditional 23126 Calico Corners Lane Spring, TX 77373 $119,950 1,484 平方英尺. 7,841 平方英尺. $81
2017-11-17 独户式别墅 Traditional 74 Northgate Drive Spring, TX 77380 $849,900 6,662 平方英尺. 30,492 平方英尺. $128
2017-11-17 独户式别墅 Traditional 22719 Post Gate Spring, TX 77373 $127,900 1,739 平方英尺. 7,405 平方英尺. $74
2017-11-17 独户式别墅 Traditional 9306 Jan Glen Lane Spring, TX 77379 $179,900 2,184 平方英尺. 13,068 平方英尺. $82
2017-11-17 独户式别墅 Traditional 23302 Lone Wolf Trail Spring, TX 77373 $155,000 1,629 平方英尺. 6,534 平方英尺. $95
2017-11-17 独户式别墅 Traditional 10226 Letham Way Street Spring, TX 77379 $494,670 4,497 平方英尺. 14,375 平方英尺. $110
2017-11-17 独户式别墅 Ranch; Traditional 23118 Oxbow Trail Spring, TX 77373 $188,700 1,845 平方英尺. 7,405 平方英尺. $102
2017-11-17 独户式别墅 Traditional 4939 Colony Hurst Trail Spring, TX 77373 $174,500 2,395 平方英尺. 5,227 平方英尺. $73
2017-11-17 独户式别墅 Traditional 6014 Coachgate Drive Spring, TX 77373 $127,900 1,756 平方英尺. 7,405 平方英尺. $73
2017-11-17 独户式别墅 Traditional 103 Bella Luce Spring, TX 77381 $398,000 2,830 平方英尺. 6,970 平方英尺. $141
2017-11-17 独户式别墅 Ranch 28919 Pecos River Court Spring, TX 77386 $153,500 1,260 平方英尺. 5,227 平方英尺. $122
2017-11-17 独户式别墅 Traditional 25111 Haverford Road Spring, TX 77389 $259,900 2,159 平方英尺. 9,148 平方英尺. $120
2017-11-17 独户式别墅 Traditional 17011 Canyon Ridge Drive Spring, TX 77379 $269,900 2,804 平方英尺. 8,276 平方英尺. $96
2017-11-17 独户式别墅 Traditional 75 Whetstone Ridge Way Spring, TX 77382 $245,000 1,933 平方英尺. 5,227 平方英尺. $127
2017-11-17 独户式别墅 Traditional 10 Nightwind Place Spring, TX 77381 $309,900 2,855 平方英尺. 8,712 平方英尺. $109
2017-11-17 独户式别墅 Ranch 25534 Timber Lakes Drive Spring, TX 77380 $99,999 2,587 平方英尺. 14,810 平方英尺. $39
2017-11-17 独户式别墅 Traditional 50 Meadowridge Place Spring, TX 77381 $325,000 3,568 平方英尺. 10,019 平方英尺. $91
2017-11-16 独户式别墅 Traditional 6007 Foxland Court Spring, TX 77379 $315,000 3,318 平方英尺. 7,405 平方英尺. $95
2017-11-16 独户式别墅 Traditional 2310 Hickory Hollow Lane Spring, TX 77386 $204,900 1,785 平方英尺. 20,909 平方英尺. $115
2017-11-16 独户式别墅 Traditional 23303 Dew Wood Lane Spring, TX 77373 $114,900 1,874 平方英尺. 6,970 平方英尺. $61
2017-11-16 独户式别墅 Traditional 69 Spring Trellis Circle Spring, TX 77382 $639,000 3,965 平方英尺. 13,504 平方英尺. $161
2017-11-16 独户式别墅 Traditional 30 Monet Bend Place Spring, TX 77382 $534,900 3,952 平方英尺. 18,295 平方英尺. $135
2017-11-16 独户式别墅 Traditional 3621 Cedar Flats Lane Spring, TX 77386 $195,000 1,618 平方英尺. 6,534 平方英尺. $121
2017-11-16 独户式别墅 Traditional 28310 Peper Hollow Lane Spring, TX 77386 $275,000 3,003 平方英尺. 8,276 平方英尺. $92
2017-11-16 独户式别墅 Traditional 25718 Oakridge Forest Lane Spring, TX 77386 $209,883 2,476 平方英尺. 7,405 平方英尺. $85
2017-11-16 独户式别墅 Traditional 3938 Rondelet Drive Spring, TX 77386 $585,000 3,232 平方英尺. 46,609 平方英尺. $181
2017-11-16 独户式别墅 Traditional 18414 Crooked Oak Way Spring, TX 77379 $339,000 3,767 平方英尺. 16,117 平方英尺. $90
2017-11-16 独户式别墅 Traditional 7250 Emerald Run Lane Spring, TX 77379 $319,900 3,216 平方英尺. 19,602 平方英尺. $99
2017-11-16 独户式别墅 Traditional 31066 Timber Bend Spring, TX 77386 $265,664 2,201 平方英尺. 7,405 平方英尺. $121
2017-11-16 独户式别墅 Traditional 3518 Beacon Creek Court Spring, TX 77386 $229,000 2,073 平方英尺. 6,098 平方英尺. $110
2017-11-16 独户式别墅 Traditional 18014 Vintage Wood Lane Spring, TX 77379 $185,000 2,822 平方英尺. 10,019 平方英尺. $66
2017-11-16 独户式别墅 Traditional 22007 Cascade Hollow Lane Spring, TX 77379 $192,000 2,017 平方英尺. 6,098 平方英尺. $95
2017-11-16 独户式别墅 Traditional 6610 Etchstone Drive Spring, TX 77389 $349,900 3,364 平方英尺. 13,939 平方英尺. $104
2017-11-16 独户式别墅 Traditional 5519 Dunleith Lane Spring, TX 77379 $249,900 2,690 平方英尺. 9,148 平方英尺. $93
2017-11-16 独户式别墅 Contemporary/Modern; Traditional 29206 Legends Worth Drive Spring, TX 77386 $140,000 1,330 平方英尺. 5,663 平方英尺. $105
2017-11-16 独户式别墅 Traditional 3748 Forest Brook Lane Spring, TX 77386 $488,499 3,610 平方英尺. $135
2017-11-16 独户式别墅 Traditional 8007 Summer Grove Circle Spring, TX 77379 $329,000 4,017 平方英尺. 10,890 平方英尺. $82
2017-11-16 独户式别墅 Traditional 17402 Moreton Lane Spring, TX 77379 $335,000 3,295 平方英尺. 11,761 平方英尺. $102
2017-11-16 独户式别墅 Traditional 3626 Chessnut Glen Drive Spring, TX 77388 $285,000 2,814 平方英尺. 9,148 平方英尺. $101
2017-11-16 独户式别墅 Traditional 5346 Glenfield Spring Lane Spring, TX 77389 $232,000 2,151 平方英尺. 6,970 平方英尺. $108
2017-11-16 独户式别墅 Traditional 29493 Salem Fields Drive Spring, TX 77386 $228,000 2,886 平方英尺. 6,098 平方英尺. $79
2017-11-16 独户式别墅 Traditional 27 Hillside View Place Spring, TX 77381 $625,000 3,471 平方英尺. 16,988 平方英尺. $180
2017-11-15 独户式别墅 French; Traditional 823 Shirefield Court Spring, TX 77373 $279,900 3,590 平方英尺. 11,326 平方英尺. $78
2017-11-15 独户式别墅 Traditional 25222 Piney Heights Lane Spring, TX 77389 $287,900 2,916 平方英尺. 10,019 平方英尺. $99
2017-11-15 独户式别墅 Traditional 3779 Blaine Oaks Lane Spring, TX 77386 $235,000 1,884 平方英尺. 6,098 平方英尺. $125
2017-11-15 独户式别墅 Traditional 25502 Oakhurst Drive Spring, TX 77386 $325,000 2,200 平方英尺. 16,553 平方英尺. $148
2017-11-15 独户式别墅 Traditional 6227 Cash Oaks Drive Spring, TX 77379 $199,000 3,567 平方英尺. 6,534 平方英尺. $56
2017-11-15 独户式别墅 Traditional 31623 Summit Springs Lane Spring, TX 77386 $217,000 2,433 平方英尺. 6,098 平方英尺. $89
2017-11-15 独户式别墅 Traditional 25523 Old Carriage Lane Spring, TX 77373 $194,900 2,070 平方英尺. 14,375 平方英尺. $94
2017-11-15 独户式别墅 Traditional 2214 Friars Legends Drive Spring, TX 77386 $484,000 4,409 平方英尺. 45,738 平方英尺. $110
2017-11-15 独户式别墅 Traditional 14 Swiftstream Place Spring, TX 77381 $420,000 2,566 平方英尺. 7,841 平方英尺. $164
2017-11-15 独户式别墅 Traditional 503 Willow Springs Place Spring, TX 77373 $265,000 3,697 平方英尺. 10,019 平方英尺. $72
2017-11-15 独户式别墅 Traditional 7519 Simpson Springs Lane Spring, TX 77389 $275,000 2,770 平方英尺. 6,970 平方英尺. $99
2017-11-15 独户式别墅 Traditional 16935 Valley Palms Drive Spring, TX 77379 $215,000 2,616 平方英尺. 10,019 平方英尺. $82
2017-11-15 独户式别墅 Traditional 2515 Little Forest Court Spring, TX 77373 $209,900 2,295 平方英尺. 7,841 平方英尺. $91
2017-11-15 独户式别墅 Traditional 31206 Arbor Forest Lane Spring, TX 77386 $425,000 3,511 平方英尺. 11,326 平方英尺. $121
2017-11-15 独户式别墅 Traditional 5310 Lynngate Drive Spring, TX 77373 $120,000 1,381 平方英尺. 4,792 平方英尺. $87
2017-11-15 独户式别墅 Traditional 9710 Sotherloch Lake Drive Spring, TX 77379 $469,000 4,529 平方英尺. 10,454 平方英尺. $104
2017-11-15 独户式别墅 Traditional 6603 Haughton Drive Spring, TX 77389 $450,000 3,305 平方英尺. 13,504 平方英尺. $136
2017-11-15 独户式别墅 Traditional 23314 Wolfs Crossing Court Spring, TX 77373 $193,000 2,494 平方英尺. 6,098 平方英尺. $77
2017-11-14 独户式别墅 Traditional 7526 Laguna Lake Spring, TX 77379 $485,432 3,759 平方英尺. 9,583 平方英尺. $129
2017-11-14 独户式别墅 Traditional 7510 Laguna Lake Spring, TX 77379 $323,878 2,682 平方英尺. 9,148 平方英尺. $121
2017-11-14 独户式别墅 Traditional 7502 Laguna Lake Spring, TX 77379 $299,137 1,980 平方英尺. 7,405 平方英尺. $151
2017-11-13 独户式别墅 Traditional 4326 Medina River Loop Spring, TX 77386 $155,000 1,312 平方英尺. 5,663 平方英尺. $118
2017-11-13 独户式别墅 Traditional 5602 Claymore Meadow Lane Spring, TX 77389 $252,740 1,940 平方英尺. 7,841 平方英尺. $130
2017-11-13 独户式别墅 Traditional 24210 Oakdale Hilla Spring, TX 77389 $283,150 2,530 平方英尺. 9,148 平方英尺. $112
2017-11-13 独户式别墅 Traditional 30506 Mystic Canyon Drive Spring, TX 77386 $299,000 3,571 平方英尺. 6,534 平方英尺. $84
2017-11-13 独户式别墅 Traditional 31232 New Forest Park Lane Spring, TX 77386 $409,672 3,073 平方英尺. $133
2017-11-13 独户式别墅 Traditional 28968 Llano River Loop Spring, TX 77386 $195,000 1,608 平方英尺. 6,970 平方英尺. $121
2017-11-13 独户式别墅 Traditional 3402 Cypresswood Drive Spring, TX 77388 $212,900 2,945 平方英尺. 10,019 平方英尺. $72
2017-11-13 独户式别墅 Traditional 20019 Rene Creek Court Spring, TX 77388 $297,000 3,712 平方英尺. 6,970 平方英尺. $80
2017-11-13 独户式别墅 Traditional 1314 Brendon Trails Spring, TX 77379 $295,000 2,818 平方英尺. 7,841 平方英尺. $105
2017-11-13 独户式别墅 Traditional 9310 Godstone Lane Spring, TX 77379 $289,900 3,101 平方英尺. 8,276 平方英尺. $93
2017-11-13 独户式别墅 Traditional 3106 Lenora Springs Spring, TX 77386 $334,900 3,808 平方英尺. 7,841 平方英尺. $88
2017-11-13 独户式别墅 Traditional 5506 Roserock Lane Spring, TX 77379 $169,900 2,003 平方英尺. 6,098 平方英尺. $85
2017-11-13 独户式别墅 Traditional 17307 Cypress Spring Drive Spring, TX 77388 $179,900 2,508 平方英尺. 9,148 平方英尺. $72
2017-11-13 独户式别墅 Traditional 2830 Arica Lane Spring, TX 77373 $159,900 1,794 平方英尺. 3,485 平方英尺. $89
2017-11-13 独户式别墅 Ranch 1106 Lynwood Road Spring, TX 77373 $125,000 2,460 平方英尺. 17,860 平方英尺. $51
2017-11-13 独户式别墅 Traditional 3703 Foxcreek Lane Spring, TX 77388 $370,000 3,076 平方英尺. 12,197 平方英尺. $120
2017-11-13 独户式别墅 Traditional 25734 Glen Loch Drive Spring, TX 77380 $179,900 1,925 平方英尺. 12,197 平方英尺. $93
2017-11-13 独户式别墅 Contemporary/Modern 24010 Spring Crystal Court Spring, TX 77373 $169,900 2,251 平方英尺. 6,098 平方英尺. $75
2017-11-13 独户式别墅 Traditional 8902 Village Hills Drive Spring, TX 77379 $170,000 1,722 平方英尺. 6,534 平方英尺. $99
2017-11-13 独户式别墅 Traditional 30403 Aldine Westfield Spring, TX 77386 $510,000 5,373 平方英尺. 50,530 平方英尺. $95
2017-11-13 独户式别墅 Mediterranean 27823 Aleppo Grove Drive Spring, TX 77386 $512,136 3,446 平方英尺. 10,454 平方英尺. $149
2017-11-13 独户式别墅 Traditional 3606 Rock Daisy Spring, TX 77386 $400,000 3,412 平方英尺. $117
2017-11-13 独户式别墅 Traditional 22514 Spring Crossing Drive Spring, TX 77373 $210,000 2,501 平方英尺. 4,792 平方英尺. $84
2017-11-13 独户式别墅 Traditional 19410 Sanctuary Place Drive Spring, TX 77388 $419,000 3,206 平方英尺. 10,890 平方英尺. $131
2017-11-13 独户式别墅 Ranch; Traditional 17727 Cypress Berry Drive Spring, TX 77388 $338,500 3,218 平方英尺. 7,841 平方英尺. $105
2017-11-13 独户式别墅 Traditional 3016 Kathryn Oaks Lane Spring, TX 77386 $319,997 9,583 平方英尺.
2017-11-13 独户式别墅 Traditional 6511 Pine Reserve Drive Spring, TX 77389 $290,000 2,621 平方英尺. 10,019 平方英尺. $111
2017-11-13 独户式别墅 Traditional 8206 Oak Moss Drive Spring, TX 77379 $198,900 3,161 平方英尺. 10,890 平方英尺. $63
2017-11-13 独户式别墅 Traditional 4039 Postwood Drive Spring, TX 77388 $169,900 2,247 平方英尺. 7,841 平方英尺. $76
2017-11-13 独户式别墅 Traditional 31272 New Forest Park Spring, TX 77386 $408,823 3,570 平方英尺. 8,276 平方英尺. $115
2017-11-13 独户式别墅 Traditional 29543 Evergreen Hills Drive Spring, TX 77386 $149,600 1,313 平方英尺. 4,792 平方英尺. $114
2017-11-13 独户式别墅 Contemporary/Modern 24011 Pea Ridge Drive Spring, TX 77373 $164,900 1,826 平方英尺. 7,841 平方英尺. $90
2017-11-13 独户式别墅 Traditional 1722 Stonehaven Village Spring, TX 77386 $214,900 2,420 平方英尺. $89
2017-11-13 独户式别墅 Traditional 8115 Northbridge Drive Spring, TX 77379 $286,000 4,449 平方英尺. 13,068 平方英尺. $64
2017-11-12 独户式别墅 Traditional 16027 Algrave Spring, TX 77379 $279,900 3,087 平方英尺. 8,276 平方英尺. $91
2017-11-12 独户式别墅 Traditional 17722 Telegraph Creek Spring, TX 77379 $170,000 1,936 平方英尺. 6,970 平方英尺. $88
2017-11-12 独户式别墅 Traditional 16127 Champion Drive Spring, TX 77379 $472,995 3,975 平方英尺. 11,761 平方英尺. $119
2017-11-12 独户式别墅 Traditional 23126 Sandpiper Trl Spring, TX 77373 $199,725 2,142 平方英尺. 7,405 平方英尺. $93
2017-11-12 独户式别墅 Traditional 3723 Cypress Key Drive Spring, TX 77388 $319,000 3,666 平方英尺. 13,504 平方英尺. $87
2017-11-12 独户式别墅 Ranch 3302 Long Shadows Street Spring, TX 77380 $200,000 1,662 平方英尺. 12,197 平方英尺. $120
2017-11-11 独户式别墅 Traditional 6610 Lynngate Drive Spring, TX 77373 $129,900 1,446 平方英尺. 6,098 平方英尺. $90
2017-11-11 独户式别墅 Traditional 17415 Atherington Place Spring, TX 77379 $350,000 5,280 平方英尺. 9,148 平方英尺. $66
2017-11-11 独户式别墅 Traditional 20506 Post Oak Hill Drive Spring, TX 77388 $300,000 3,266 平方英尺. 13,939 平方英尺. $92
2017-11-11 独户式别墅 Traditional 19918 Cypresswood Spg Spring, TX 77373 $230,000 2,864 平方英尺. 6,098 平方英尺. $80
2017-11-11 独户式别墅 Ranch 4522 Rosegate Drive Spring, TX 77373 $161,500 1,496 平方英尺. 6,534 平方英尺. $108
2017-11-11 独户式别墅 Traditional 5106 Wilting Oak Spring, TX 77389 $295,000 2,555 平方英尺. $115
2017-11-11 独户式别墅 Mediterranean 5518 Avanak Street Spring, TX 77389 $435,000 3,006 平方英尺. 43,560 平方英尺. $145
2017-11-11 独户式别墅 Traditional 10138 Cairn Meadows Drive Spring, TX 77379 $349,000 2,638 平方英尺. 7,405 平方英尺. $132
2017-11-11 独户式别墅 Traditional 28041 Hallimore Drive Spring, TX 77386 $385,000 3,766 平方英尺. 11,326 平方英尺. $102
2017-11-11 独户式别墅 Traditional 903 Liberty Springs Way Spring, TX 77373 $319,900 3,579 平方英尺. 10,019 平方英尺. $89
2017-11-11 独户式别墅 Contemporary/Modern 6423 Lynngate Drive Spring, TX 77373 $119,000 1,694 平方英尺. 6,098 平方英尺. $70
2017-11-11 独户式别墅 Traditional 27906 Coulter Drive Spring, TX 77386 $389,000 3,263 平方英尺. 8,276 平方英尺. $119
2017-11-11 独户式别墅 Traditional 9319 Sotherloch Lake Drive Spring, TX 77379 $375,000 3,776 平方英尺. 9,148 平方英尺. $99
2017-11-11 独户式别墅 Ranch; Traditional 28838 Llano River Loop Spring, TX 77386 $139,999 1,108 平方英尺. 5,227 平方英尺. $126
2017-11-11 独户式别墅 Traditional 5403 White Birch Run Spring, TX 77386 $725,000 4,455 平方英尺. 50,965 平方英尺. $163
2017-11-10 独户式别墅 Traditional 6502 Meadowtrace Spring, TX 77389 $249,500 2,730 平方英尺. 13,504 平方英尺. $91
2017-11-10 独户式别墅 Traditional 5015 Riverbridge Court Spring, TX 77379 $199,000 2,282 平方英尺. 5,663 平方英尺. $87
2017-11-10 独户式别墅 Traditional 3806 Spruce Bend Lane Spring, TX 77386 $430,820 3,410 平方英尺. $126
2017-11-10 独户式别墅 Traditional 31249 Crescent Timbers Lane Spring, TX 77386 $461,262 3,199 平方英尺. $144
2017-11-10 独户式别墅 Traditional 3532 Imperial Cove Court Spring, TX 77386 $336,440 2,841 平方英尺. $118
2017-11-10 独户式别墅 Traditional 31521 Timber Grove Lane Spring, TX 77386 $305,090 2,413 平方英尺. $126
2017-11-10 独户式别墅 Traditional 3536 Imperial Cove Court Spring, TX 77386 $298,740 2,620 平方英尺. $114
2017-11-10 独户式别墅 Traditional 3524 Imperial Cove Court Spring, TX 77386 $273,040 2,047 平方英尺. $133
2017-11-10 独户式别墅 Traditional 3512 Imperial Cove Court Spring, TX 77386 $255,840 1,857 平方英尺. $138
2017-11-10 独户式别墅 Traditional 3508 Imperial Cove Court Spring, TX 77386 $292,440 2,419 平方英尺. $121
2017-11-10 独户式别墅 Traditional 31509 Timber Grove Lane Spring, TX 77386 $264,090 2,047 平方英尺. $129
2017-11-10 独户式别墅 Traditional 31517 Timber Grove Lane Spring, TX 77386 $252,640 1,857 平方英尺. $136
2017-11-10 独户式别墅 Traditional 2546 Anzalone Drive Spring, TX 77373 $185,000 2,077 平方英尺. 12,197 平方英尺. $89
2017-11-10 独户式别墅 Traditional 29631 Spring Forest Drive Spring, TX 77386 $125,000 2,784 平方英尺. 26,572 平方英尺. $45
2017-11-10 独户式别墅 Traditional 7106 Panther Ridge Drive Spring, TX 77389 $248,000 2,454 平方英尺. 6,970 平方英尺. $101
2017-11-10 独户式别墅 Traditional 6814 Preston Grove Drive Spring, TX 77389 $349,500 3,140 平方英尺. 9,148 平方英尺. $111
2017-11-10 独户式别墅 Traditional 2559 Elm Crossing Trl Spring, TX 77386 $189,900 1,794 平方英尺. 4,792 平方英尺. $106
2017-11-10 独户式别墅 Traditional 31102 Wood Tower Court Spring, TX 77386 $200,000 1,969 平方英尺. 7,841 平方英尺. $102
2017-11-10 独户式别墅 Traditional 29426 Ridge Clearing Spring, TX 77386 $235,238 2,603 平方英尺. $90
2017-11-10 独户式别墅 Traditional 27951 Hendrix Park Spring, TX 77386 $264,900 2,222 平方英尺. $119
2017-11-10 独户式别墅 Traditional 118 Deer Plain Drive Spring, TX 77389 $420,000 3,252 平方英尺. 7,405 平方英尺. $129
2017-11-10 独户式别墅 Traditional 16206 Salmon Lane Spring, TX 77379 $344,900 2,983 平方英尺. 9,148 平方英尺. $116
2017-11-10 独户式别墅 Traditional 23906 Leblanc Landing Drive Spring, TX 77389 $300,000 3,672 平方英尺. 7,405 平方英尺. $82
2017-11-10 独户式别墅 Traditional 4106 Tee Tree Court Spring, TX 77386 $559,999 4,263 平方英尺. 45,738 平方英尺. $131
2017-11-10 独户式别墅 Traditional 3310 Flickering Candle Drive Spring, TX 77388 $270,000 3,169 平方英尺. 11,326 平方英尺. $85
2017-11-10 独户式别墅 Traditional 25839 Timber Lakes Drive Spring, TX 77380 $155,000 1,696 平方英尺. 12,632 平方英尺. $91
2017-11-10 独户式别墅 Traditional 23303 Timberbrook Drive Spring, TX 77373 $167,990 1,953 平方英尺. 6,098 平方英尺. $86
2017-11-10 独户式别墅 Traditional 17740 Cypress Villas Drive Spring, TX 77379 $157,900 2,514 平方英尺. 6,534 平方英尺. $63
2017-11-10 独户式别墅 Traditional 23131 Sawmill Cross Spring, TX 77373 $164,900 1,616 平方英尺. 6,534 平方英尺. $102
2017-11-09 独户式别墅 Traditional 25111 Auburn Bend Drive Spring, TX 77389 $289,900 2,696 平方英尺. 8,276 平方英尺. $108
2017-11-09 独户式别墅 Other Style 6307 Wimbledon Villas Drive Spring, TX 77379 $280,000 3,160 平方英尺. 13,504 平方英尺. $89
2017-11-09 独户式别墅 Contemporary/Modern 3126 Forestbrook Drive Spring, TX 77373 $67,900 1,131 平方英尺. 4,356 平方英尺. $60
2017-11-09 独户式别墅 Contemporary/Modern 3538 Fuller Bluff Drive Spring, TX 77386 $159,900 1,648 平方英尺. 4,792 平方英尺. $97
2017-11-09 独户式别墅 Traditional 15625 Martineau Street Spring, TX 77032 $165,000 3,920 平方英尺.
2017-11-09 独户式别墅 Traditional 21202 Castlemont Lane Spring, TX 77388 $179,900 2,205 平方英尺. 10,454 平方英尺. $82
2017-11-09 独户式别墅 Traditional 29403 Legends Green Drive Spring, TX 77386 $169,900 1,468 平方英尺. 6,098 平方英尺. $116
2017-11-09 独户式别墅 Traditional 20910 Imperial Ridge Lane Spring, TX 77379 $294,900 3,148 平方英尺. 6,534 平方英尺. $94
2017-11-09 独户式别墅 Traditional 20922 Wind Field Lane Spring, TX 77379 $205,000 1,801 平方英尺. 6,098 平方英尺. $114
2017-11-09 独户式别墅 Traditional 24523 Alli Creek Court Spring, TX 77389 $398,700 3,852 平方英尺. 8,276 平方英尺. $104
2017-11-09 独户式别墅 Traditional 4506 Shalom Creek Lane Spring, TX 77388 $155,000 1,612 平方英尺. 6,970 平方英尺. $96
2017-11-09 独户式别墅 Traditional 18103 Pleasantwood Drive Spring, TX 77379 $435,000 4,800 平方英尺. 17,424 平方英尺. $91
2017-11-09 独户式别墅 Georgian 28515 Cory Terrace Court Spring, TX 77386 $234,999 2,558 平方英尺. 6,970 平方英尺. $92
2017-11-09 独户式别墅 Traditional 4027 Fir Forest Drive Spring, TX 77388 $175,000 2,079 平方英尺. 9,148 平方英尺. $84
2017-11-09 独户式别墅 Mediterranean 7907 Wooded Way Spring, TX 77389 $639,000 5,600 平方英尺. 20,473 平方英尺. $114
2017-11-09 独户式别墅 Traditional 7218 Wedgehollow Court Spring, TX 77389 $427,000 3,500 平方英尺. 12,197 平方英尺. $122
2017-11-09 独户式别墅 Traditional 17618 Tall Cypress Drive Spring, TX 77388 $249,000 2,815 平方英尺. 9,148 平方英尺. $88
2017-11-09 独户式别墅 Traditional 7007 Augusta Pines Cv Spring, TX 77389 $700,000 4,150 平方英尺. 18,731 平方英尺. $169
2017-11-09 独户式别墅 Traditional 4942 Hickorygate Drive Spring, TX 77373 $149,900 1,984 平方英尺. 6,534 平方英尺. $76
2017-11-09 独户式别墅 Traditional 24831 Kennington Way Spring, TX 77389 $389,900 3,397 平方英尺. 13,068 平方英尺. $115
2017-11-09 独户式别墅 Traditional 5914 Brookway Willow Drive Spring, TX 77379 $369,900 3,798 平方英尺. 6,970 平方英尺. $97
2017-11-09 独户式别墅 Traditional 735 Magic Oaks Drive Spring, TX 77388 $139,900 3,081 平方英尺. $45
2017-11-08 独户式别墅 Traditional 21511 Windsor Castle Drive Spring, TX 77388 $185,000 2,098 平方英尺. 6,970 平方英尺. $88
2017-11-08 独户式别墅 Traditional 4911 Tealgate Drive Spring, TX 77373 $149,900 2,108 平方英尺. 6,534 平方英尺. $71
2017-11-08 独户式别墅 Traditional 22522 Highfield Ridge Lane Spring, TX 77373 $121,000 1,432 平方英尺. 5,227 平方英尺. $84
2017-11-08 独户式别墅 Ranch 22807 Melham Lane Spring, TX 77373 $96,900 1,241 平方英尺. 6,098 平方英尺. $78
2017-11-08 独户式别墅 Traditional 9530 Arcade Drive Spring, TX 77379 $319,900 3,282 平方英尺. 8,712 平方英尺. $97
2017-11-08 独户式别墅 Traditional 22526 Sweetglen Court Spring, TX 77373 $168,000 1,505 平方英尺. 6,098 平方英尺. $112
2017-11-08 独户式别墅 Traditional 6 Meadowridge Place Spring, TX 77381 $598,000 3,673 平方英尺. 12,632 平方英尺. $163
2017-11-08 独户式别墅 Traditional 5326 Lacreek Lane Spring, TX 77379 $224,990 2,499 平方英尺. 12,197 平方英尺. $90
2017-11-08 独户式别墅 Traditional 506 Joshua Lee Lane Spring, TX 77386 $206,500 2,294 平方英尺. 8,276 平方英尺. $90
2017-11-08 独户式别墅 Traditional 8102 Abby Lane Circle Spring, TX 77379 $244,900 2,957 平方英尺. 17,860 平方英尺. $83
2017-11-08 独户式别墅 Traditional 2351 Loyanne Drive Spring, TX 77373 $149,950 1,843 平方英尺. 6,534 平方英尺. $81
2017-11-08 独户式别墅 Traditional 25118 Firewood Lane Spring, TX 77373 $150,000 1,676 平方英尺. $90
2017-11-08 独户式别墅 Traditional 6414 Craigway Road Spring, TX 77389 $339,000 2,665 平方英尺. 16,553 平方英尺. $127
2017-11-08 独户式别墅 Traditional 4930 Bridgeville Lane Spring, TX 77388 $190,000 2,075 平方英尺. 15,682 平方英尺. $92
2017-11-08 独户式别墅 Traditional 20939 Wind Field Lane Spring, TX 77379 $230,000 2,096 平方英尺. 6,534 平方英尺. $110
2017-11-07 独户式别墅 Traditional 7619 Langley Road Spring, TX 77389 $459,700 3,624 平方英尺. 10,890 平方英尺. $127
2017-11-07 独户式别墅 Traditional 2530 Autumn Springs Lane Spring, TX 77373 $139,900 1,466 平方英尺. 4,792 平方英尺. $95
2017-11-07 独户式别墅 Traditional 3508 Nutwood Lane Spring, TX 77389 $160,000 1,511 平方英尺. 6,534 平方英尺. $106
2017-11-07 独户式别墅 Traditional 8027 Danette Court Spring, TX 77379 $265,000 3,339 平方英尺. 8,276 平方英尺. $79
2017-11-07 独户式别墅 Traditional 1435 Reno Ridge Spring, TX 77373 $197,880 2,070 平方英尺. $96
2017-11-07 独户式别墅 Traditional 1706 Calmar Drive Spring, TX 77386 $259,000 2,538 平方英尺. 9,148 平方英尺. $102
2017-11-07 独户式别墅 Traditional 25727 Oakridge Forest Lane Spring, TX 77386 $217,000 2,526 平方英尺. $86
2017-11-07 独户式别墅 Traditional 1443 Reno Ridge Spring, TX 77373 $212,990 2,455 平方英尺. $87
2017-11-07 独户式别墅 Traditional 1430 Reno Ridge Spring, TX 77373 $211,140 2,667 平方英尺. $79
2017-11-07 独户式别墅 Traditional 1447 Reno Ridge Spring, TX 77373 $203,990 2,140 平方英尺. $95
2017-11-07 独户式别墅 Traditional 1426 Reno Ridge Spring, TX 77373 $232,340 2,941 平方英尺. $79
2017-11-07 独户式别墅 Traditional 3434 Avalon Spring Lane Spring, TX 77386 $218,000 1,914 平方英尺. 6,098 平方英尺. $114
2017-11-07 独户式别墅 Traditional 1422 Reno Ridge Spring, TX 77373 $204,540 2,140 平方英尺. $96
2017-11-07 独户式别墅 Traditional 1438 Reno Ridge Spring, TX 77373 $190,990 1,866 平方英尺. $102
2017-11-07 独户式别墅 Traditional 4105 Sandalwood Lane Spring, TX 77386 $459,900 3,258 平方英尺. 9,148 平方英尺. $141
2017-11-07 独户式别墅 Traditional 1439 Reno Ridge Spring, TX 77373 $180,990 1,671 平方英尺. $108
2017-11-07 独户式别墅 Mediterranean 11 Maroon Creek Court Spring, TX 77389 $1,380,000 5,681 平方英尺. 18,731 平方英尺. $243
2017-11-07 独户式别墅 Traditional 4101 Wooded Bend Drive Spring, TX 77386 $489,900 3,398 平方英尺. 8,712 平方英尺. $144
2017-11-07 独户式别墅 Traditional 19906 Cypresswood Lake Drive Spring, TX 77373 $166,400 2,891 平方英尺. 8,712 平方英尺. $58
2017-11-07 独户式别墅 Contemporary/Modern 3019 Peerless Pass Court Spring, TX 77373 $199,000 3,074 平方英尺. 6,098 平方英尺. $65
2017-11-07 独户式别墅 Traditional 3411 Candlepine Drive Spring, TX 77388 $198,000 1,995 平方英尺. 6,098 平方英尺. $99
2017-11-07 独户式别墅 Traditional 1922 Louetta Park Circle Spring, TX 77388 $167,000 1,686 平方英尺. 5,663 平方英尺. $99
2017-11-07 独户式别墅 Traditional 22619 Pebworth Place Spring, TX 77373 $152,000 1,576 平方英尺. 6,534 平方英尺. $96
2017-11-06 独户式别墅 Traditional 17127 Mountain Crest Drive Spring, TX 77379 $275,000 3,010 平方英尺. 6,534 平方英尺. $91
2017-11-06 独户式别墅 Colonial 23310 Stepinwolf Lane Spring, TX 77373 $163,900 2,194 平方英尺. 6,098 平方英尺. $75
2017-11-06 独户式别墅 Traditional 19718 Sternwood Manor Drive Spring, TX 77379 $230,000 2,381 平方英尺. 6,970 平方英尺. $97
2017-11-06 独户式别墅 Traditional 25322 Old Carriage Lane Spring, TX 77373 $210,000 2,088 平方英尺. 13,939 平方英尺. $101
2017-11-06 独户式别墅 Traditional 22518 Cutter Mill Drive Spring, TX 77389 $295,000 2,840 平方英尺. 6,534 平方英尺. $104
2017-11-06 独户式别墅 Traditional 17831 Windtree Lane Spring, TX 77379 $275,000 3,090 平方英尺. 16,117 平方英尺. $89
2017-11-06 独户式别墅 Traditional 17206 Colony Creek Drive Spring, TX 77379 $215,000 2,342 平方英尺. 6,534 平方英尺. $92
2017-11-06 独户式别墅 Traditional 3811 Broken Elm Drive Spring, TX 77388 $155,000 2,211 平方英尺. 7,405 平方英尺. $70
2017-11-06 独户式别墅 Traditional 25815 Pepper Ridge Lane Spring, TX 77373 $114,900 1,622 平方英尺. 7,405 平方英尺. $71
2017-11-06 独户式别墅 Traditional 2115 Trailing Vine Road Spring, TX 77373 $146,900 1,673 平方英尺. 8,712 平方英尺. $88
2017-11-06 独户式别墅 Ranch; Traditional 623 Timberstand Lane Spring, TX 77373 $185,000 1,852 平方英尺. 6,970 平方英尺. $100
2017-11-05 独户式别墅 Traditional 4523 Greenleaf Drive Spring, TX 77389 $220,400 1,892 平方英尺. 6,970 平方英尺. $116
2017-11-05 独户式别墅 Traditional 22215 Bridgestone Trails Drive Spring, TX 77388 $235,000 2,746 平方英尺. 6,534 平方英尺. $86
2017-11-05 独户式别墅 Traditional 814 Slate Valley Spring, TX 77373 $168,000 1,743 平方英尺. 7,405 平方英尺. $96
2017-11-05 独户式别墅 Traditional 4232 Grand Oaks Wind Spring, TX 77386 $381,344 2,786 平方英尺. 8,712 平方英尺. $137
2017-11-05 独户式别墅 Ranch 3854 Everly Bend Spring, TX 77386 $379,900 2,721 平方英尺. $140
2017-11-05 独户式别墅 Traditional 4304 Silver Oak Spring, TX 77386 $363,981 2,737 平方英尺. 7,841 平方英尺. $133
2017-11-05 独户式别墅 Mediterranean; Traditional 4228 Grand Oaks Wind Spring, TX 77386 $346,269 2,392 平方英尺. 6,970 平方英尺. $145
2017-11-05 独户式别墅 Traditional 31715 Dover Oaks Lane Spring, TX 77386 $225,000 2,050 平方英尺. 6,534 平方英尺. $110
2017-11-05 独户式别墅 Traditional 24034 Spring Gum Drive Spring, TX 77373 $129,000 1,356 平方英尺. 6,534 平方英尺. $95
2017-11-04 独户式别墅 Traditional 19342 Dickson Park Drive Spring, TX 77373 $210,000 2,451 平方英尺. 6,970 平方英尺. $86
2017-11-04 独户式别墅 Traditional 4308 Silver Oak Spring, TX 77386 $294,403 2,150 平方英尺. 6,970 平方英尺. $137
2017-11-04 独户式别墅 Traditional 3218 Meline Fields Spring, TX 77386 $285,000 3,271 平方英尺. 6,534 平方英尺. $87
2017-11-04 独户式别墅 Traditional 4211 Countryheights Court Spring, TX 77388 $339,900 3,465 平方英尺. 8,712 平方英尺. $98
2017-11-04 独户式别墅 Traditional 6723 Lilacbrook Court Spring, TX 77379 $184,900 1,957 平方英尺. 6,534 平方英尺. $94
2017-11-04 独户式别墅 Traditional 16803 Sandypine Lane Spring, TX 77379 $289,900 3,028 平方英尺. 13,504 平方英尺. $96
2017-11-04 独户式别墅 Ranch 6210 Sunnygate Drive Spring, TX 77373 $159,000 1,613 平方英尺. 6,534 平方英尺. $99
2017-11-04 独户式别墅 Traditional 25110 Holyoke Lane Spring, TX 77373 $139,900 1,356 平方英尺. 6,970 平方英尺. $103
2017-11-04 独户式别墅 Traditional 8903 Village Hills Drive Spring, TX 77379 $169,999 1,510 平方英尺. 6,098 平方英尺. $113
2017-11-04 独户式别墅 Traditional 31026 Autumn Canyon Lane Spring, TX 77386 $339,000 4,242 平方英尺. 11,326 平方英尺. $80
2017-11-04 独户式别墅 Traditional 5239 Preserve Park Spring, TX 77389 $434,000 3,567 平方英尺. 10,454 平方英尺. $122
2017-11-03 独户式别墅 Traditional 3807 Spruce Bend Lane Spring, TX 77386 $421,740 3,129 平方英尺. $135
2017-11-03 独户式别墅 Traditional 18207 Mantana Drive Spring, TX 77388 $155,000 2,505 平方英尺. 3,920 平方英尺. $62
2017-11-03 独户式别墅 Traditional 15903 Stornoway Drive Spring, TX 77379 $622,000 5,317 平方英尺. 16,988 平方英尺. $117
2017-11-03 独户式别墅 English; Traditional 6619 Sumner Isle Court Spring, TX 77379 $345,000 3,959 平方英尺. 17,860 平方英尺. $87
2017-11-03 独户式别墅 Traditional 29127 Foxingham Circle Spring, TX 77386 $164,900 1,960 平方英尺. 5,663 平方英尺. $84
2017-11-03 独户式别墅 Contemporary/Modern 31710 Vista Lake Lane Spring, TX 77386 $765,000 4,264 平方英尺. 16,553 平方英尺. $179
2017-11-03 独户式别墅 Traditional 6003 Greenway Manor Lane Spring, TX 77373 $139,000 2,203 平方英尺. 8,712 平方英尺. $63
2017-11-03 独户式别墅 Traditional 29619 Legends Bend Lane Spring, TX 77386 $230,000 3,077 平方英尺. 6,098 平方英尺. $75
2017-11-03 独户式别墅 Traditional 9311 Southleigh Drive Spring, TX 77379 $170,000 2,164 平方英尺. 6,534 平方英尺. $79
2017-11-03 独户式别墅 Traditional 3706 Benders Landing Boulevard Spring, TX 77386 $1,190,000 6,613 平方英尺. 45,302 平方英尺. $180
2017-11-03 独户式别墅 Traditional 9011 Southleigh Drive Spring, TX 77379 $250,000 2,706 平方英尺. 7,841 平方英尺. $92
2017-11-03 独户式别墅 Contemporary/Modern 22926 Ammick Court Spring, TX 77389 $260,000 2,237 平方英尺. 13,504 平方英尺. $116
2017-11-03 独户式别墅 Traditional 622 Silverton Street Spring, TX 77373 $140,000 1,900 平方英尺. 13,068 平方英尺. $74
2017-11-03 独户式别墅 Traditional 4510 Bridgestone Valley Drive Spring, TX 77388 $189,990 2,005 平方英尺. 5,227 平方英尺. $95
2017-11-03 独户式别墅 Traditional 7514 Kalebs Pond Court Spring, TX 77389 $1,200,000 5,152 平方英尺. 20,038 平方英尺. $233
2017-11-03 独户式别墅 Traditional 30 Sagamore Ridge Place Spring, TX 77389 $368,000 3,166 平方英尺. 11,326 平方英尺. $116
2017-11-03 独户式别墅 Other Style 4515 Tangle Creek Lane Spring, TX 77388 $187,000 2,014 平方英尺. 6,970 平方英尺. $93
2017-11-03 独户式别墅 Traditional 3038 Lemmingham Drive Spring, TX 77388 $219,000 2,319 平方英尺. 7,841 平方英尺. $94
2017-11-03 独户式别墅 Traditional 6711 Rustling Timbers Lane Spring, TX 77379 $237,380 2,158 平方英尺. 7,841 平方英尺. $110
2017-11-03 独户式别墅 Traditional 4306 Countryoaks Court Spring, TX 77388 $235,000 2,595 平方英尺. 6,098 平方英尺. $91
2017-11-03 独户式别墅 Other Style 12 Pleasant Shadows Drive Spring, TX 77389 $1,900,000 6,320 平方英尺. 19,602 平方英尺. $301
2017-11-03 独户式别墅 Traditional 5410 Red Oak Lane Spring, TX 77379 $354,900 3,772 平方英尺. 10,019 平方英尺. $94
2017-11-03 独户式别墅 Traditional 3522 Kentwood Drive Spring, TX 77380 $149,500 1,470 平方英尺. 7,841 平方英尺. $102
2017-11-02 独户式别墅 Traditional 22515 Sleepygate Drive Spring, TX 77373 $124,999 1,564 平方英尺. 6,534 平方英尺. $80
2017-11-02 独户式别墅 Traditional 7002 Riata Hills Lane Spring, TX 77379 $255,000 2,192 平方英尺. 6,098 平方英尺. $116
2017-11-02 独户式别墅 Colonial 24326 Pine Canyon Drive Spring, TX 77380 $115,000 1,835 平方英尺. 11,326 平方英尺. $63
2017-11-02 独户式别墅 Colonial 24511 Pine Canyon Drive Spring, TX 77380 $90,000 1,367 平方英尺. 12,197 平方英尺. $66
2017-11-02 独户式别墅 Traditional 8218 Redchurch Drive Spring, TX 77379 $285,000 2,936 平方英尺. 6,970 平方英尺. $97
2017-11-02 独户式别墅 Traditional 29514 Water Willow Drive Spring, TX 77386 $229,990 1,630 平方英尺. $141
2017-11-02 独户式别墅 Traditional 20010 Winford Court Spring, TX 77379 $345,000 3,067 平方英尺. 8,712 平方英尺. $112
2017-11-02 独户式别墅 Ranch 6719 Rustling Timbers Lane Spring, TX 77379 $199,900 2,272 平方英尺. 6,534 平方英尺. $88
2017-11-02 独户式别墅 Traditional 4119 Flagstone Pine Lane Spring, TX 77386 $591,595 4,242 平方英尺. $139
2017-11-02 独户式别墅 Traditional 27119 Rose Vervain Drive Spring, TX 77386 $233,900 1,920 平方英尺. 8,712 平方英尺. $122
2017-11-02 独户式别墅 Traditional 23227 Creek Park Drive Spring, TX 77389 $555,057 3,757 平方英尺. 14,810 平方英尺. $148
2017-11-02 独户式别墅 Traditional 20010 Mayfair Park Lane Spring, TX 77379 $250,000 2,482 平方英尺. 7,841 平方英尺. $101
2017-11-02 独户式别墅 Traditional 24918 Northampton Forest Drive Spring, TX 77389 $399,000 4,639 平方英尺. 12,632 平方英尺. $86
2017-11-02 独户式别墅 Traditional 2810 Delmar Terrace Spring, TX 77386 $439,900 3,400 平方英尺. 8,712 平方英尺. $129
2017-11-02 独户式别墅 Traditional 2838 Lexington Park Drive Spring, TX 77373 $185,500 1,800 平方英尺. 7,841 平方英尺. $103
2017-11-02 独户式别墅 Traditional 3619 Cross Green Lane Spring, TX 77373 $165,500 1,477 平方英尺. 6,534 平方英尺. $112
2017-11-02 独户式别墅 Traditional 4922 Aquagate Spring, TX 77373 $185,000 2,351 平方英尺. 5,663 平方英尺. $79
2017-11-02 独户式别墅 Traditional 3710 Cypress Hill Drive Spring, TX 77388 $199,990 2,298 平方英尺. 9,148 平方英尺. $87
2017-11-02 独户式别墅 French 8338 Mentmore Drive Spring, TX 77379 $210,000 2,560 平方英尺. 7,841 平方英尺. $82
2017-11-02 独户式别墅 Traditional 6202 Lacoste Love Court Spring, TX 77379 $379,900 4,482 平方英尺. 14,375 平方英尺. $85
2017-11-02 独户式别墅 Traditional 16818 Windypine Drive Spring, TX 77379 $263,000 3,256 平方英尺. 9,583 平方英尺. $81
2017-11-02 独户式别墅 Traditional 24302 Standing Oak Drive Spring, TX 77389 $299,900 2,564 平方英尺. 35,719 平方英尺. $117
2017-11-02 独户式别墅 Traditional 7024 Treaschwig Road Spring, TX 77373 $950,000 2,794 平方英尺. 435,600 平方英尺. $340
2017-11-01 独户式别墅 Traditional 6211 Knollview Drive Spring, TX 77389 $265,000 2,662 平方英尺. 13,504 平方英尺. $100
2017-11-01 独户式别墅 Traditional 29453 Graceful Pathway Spring, TX 77386 $185,000 2,455 平方英尺. 4,792 平方英尺. $75
2017-11-01 独户式别墅 Traditional 28302 Ryans Ridge Lane Spring, TX 77386 $365,000 3,452 平方英尺. 9,583 平方英尺. $106
2017-11-01 独户式别墅 Contemporary/Modern 31010 Oak Forest Hollow Lane Spring, TX 77386 $325,000 3,112 平方英尺. 10,019 平方英尺. $104
2017-11-01 独户式别墅 Traditional 24414 Pine Canyon Drive Spring, TX 77380 $129,000 3,199 平方英尺. 29,621 平方英尺. $40
2017-11-01 独户式别墅 Traditional 19510 Remington Manor Street Spring, TX 77379 $398,000 2,698 平方英尺. 7,841 平方英尺. $148
2017-11-01 独户式别墅 Contemporary/Modern 6506 Fallengate Drive Spring, TX 77373 $121,000 1,446 平方英尺. 6,098 平方英尺. $84
2017-11-01 独户式别墅 Traditional 2423 Peaceful Valley Spring, TX 77373 $120,000 2,253 平方英尺. 7,841 平方英尺. $53
2017-11-01 独户式别墅 Traditional 3706 Tarawood Court Spring, TX 77388 $285,000 3,054 平方英尺. 8,276 平方英尺. $93
2017-11-01 独户式别墅 Traditional 17822 Split Creek Drive Spring, TX 77379 $230,000 2,324 平方英尺. 9,148 平方英尺. $99
2017-11-01 独户式别墅 Traditional 3526 Azalea Sands Drive Spring, TX 77386 $222,500 2,636 平方英尺. 5,663 平方英尺. $84
2017-11-01 独户式别墅 Ranch 23302 Timberbrook Drive Spring, TX 77373 $145,500 1,616 平方英尺. 6,098 平方英尺. $90
2017-11-01 独户式别墅 Contemporary/Modern; Traditional 30 Liberty Branch Boulevard Spring, TX 77389 $899,000 4,752 平方英尺. 10,019 平方英尺. $189
2017-11-01 独户式别墅 Traditional 27415 Buena Way Spring, TX 77386 $495,000 2,869 平方英尺. 44,431 平方英尺. $173
2017-11-01 独户式别墅 Traditional 4523 Preserve Park Drive Spring, TX 77389 $324,990 2,752 平方英尺. 7,841 平方英尺. $118
2017-11-01 独户式别墅 Traditional 21542 Falvel Lake Drive Spring, TX 77388 $160,000 1,379 平方英尺. 5,227 平方英尺. $116
2017-11-01 独户式别墅 Traditional 30618 Woodson Trace Drive Spring, TX 77386 $199,900 1,796 平方英尺. 5,227 平方英尺. $111
2017-11-01 独户式别墅 Traditional 2602 Springstone Drive Spring, TX 77386 $169,000 2,128 平方英尺. 6,534 平方英尺. $79
2017-11-01 独户式别墅 Traditional 8030 Danette Court Spring, TX 77379 $349,900 3,759 平方英尺. 12,197 平方英尺. $93
2017-11-01 独户式别墅 Traditional 18502 Sweetmeadow Drive Spring, TX 77379 $169,000 2,100 平方英尺. 8,276 平方英尺. $80
2017-11-01 独户式别墅 Traditional 11 Silver Arrow Court Spring, TX 77389 $285,000 2,185 平方英尺. 6,970 平方英尺. $130
2017-11-01 独户式别墅 Traditional 21611 Redcrested Glen Court Spring, TX 77388 $215,000 2,069 平方英尺. $104
2017-11-01 独户式别墅 Contemporary/Modern 5907 White Birch Run Spring, TX 77386 $759,900 4,188 平方英尺. 46,174 平方英尺. $181
2017-10-31 独户式别墅 Traditional 7103 Edwanna Lane Spring, TX 77389 $234,999 2,132 平方英尺. 5,227 平方英尺. $110
2017-10-31 独户式别墅 Traditional 4915 Hickorygate Drive Spring, TX 77373 $90,000 1,044 平方英尺. 6,098 平方英尺. $86
2017-10-31 独户式别墅 Colonial 8315 Silver Shadows Lane Spring, TX 77379 $275,000 3,457 平方英尺. 11,761 平方英尺. $80
2017-10-31 独户式别墅 Traditional 3014 Lexanne Court Spring, TX 77388 $234,500 2,134 平方英尺. 9,583 平方英尺. $110
2017-10-31 独户式别墅 Traditional 9730 Blue Cruls Way Spring, TX 77379 $424,900 4,544 平方英尺. 10,019 平方英尺. $94
2017-10-31 独户式别墅 Traditional 9619 Galston Lane Spring, TX 77379 $165,000 1,622 平方英尺. 6,970 平方英尺. $102
2017-10-31 独户式别墅 Traditional 2311 Daneswood Court Spring, TX 77388 $256,900 2,760 平方英尺. 6,534 平方英尺. $93
2017-10-31 独户式别墅 Traditional 3210 Montclair Orchard Trace Spring, TX 77386 $240,000 2,048 平方英尺. $117
2017-10-31 独户式别墅 Contemporary/Modern 4038 Woodland Meadow Drive Spring, TX 77386 $810,000 4,458 平方英尺. 14,810 平方英尺. $182
2017-10-31 独户式别墅 Traditional 22507 Spring Link Court Spring, TX 77373 $189,000 2,720 平方英尺. 4,792 平方英尺. $69
2017-10-31 独户式别墅 Traditional 202 North Hill Drive Spring, TX 77373 $99,900 1,967 平方英尺. 9,583 平方英尺. $51
2017-10-31 独户式别墅 Traditional 2238 Autumn Springs Lane Spring, TX 77373 $135,000 1,551 平方英尺. 7,405 平方英尺. $87
2017-10-31 独户式别墅 Traditional 4411 Sanctuary Halls Spring, TX 77388 $390,000 3,506 平方英尺. 10,454 平方英尺. $111
2017-10-31 独户式别墅 Traditional 2303 Quail Haven Road Spring, TX 77373 $158,900 2,134 平方英尺. 9,583 平方英尺. $74
2017-10-31 独户式别墅 Traditional 3422 Roaming Woods Spring, TX 77380 $178,800 1,621 平方英尺. 11,761 平方英尺. $110
2017-10-31 独户式别墅 Ranch 20415 Pecan Brook Court Spring, TX 77379 $280,000 2,014 平方英尺. 6,098 平方英尺. $139
2017-10-31 独户式别墅 Traditional 18615 Lena Trail Drive Spring, TX 77388 $349,900 3,174 平方英尺. 7,405 平方英尺. $110
2017-10-31 独户式别墅 Traditional 4002 Falvel Shadow Creek Drive Spring, TX 77388 $175,000 1,602 平方英尺. 5,227 平方英尺. $109
2017-10-31 独户式别墅 Traditional 20614 Louetta Oak Spring, TX 77388 $230,000 2,540 平方英尺. 6,534 平方英尺. $91
2017-10-30 独户式别墅 Traditional 158 Sawbridge Circle Spring, TX 77389 $367,000 2,816 平方英尺. 8,712 平方英尺. $130
2017-10-30 独户式别墅 Traditional 24015 Rosedale Oaks Drive Spring, TX 77389 $269,000 1,843 平方英尺. $146
2017-10-30 独户式别墅 Traditional 6606 Bridgegate Drive Spring, TX 77373 $139,900 1,772 平方英尺. 6,534 平方英尺. $79
2017-10-30 独户式别墅 Traditional 24303 Creekview Drive Spring, TX 77389 $219,900 2,358 平方英尺. 14,375 平方英尺. $93
2017-10-30 独户式别墅 Traditional 3402 Pine Run Spring, TX 77388 $247,000 2,405 平方英尺. 7,405 平方英尺. $103
2017-10-30 独户式别墅 Traditional 23823 Pebworth Place Spring, TX 77373 $125,000 1,486 平方英尺. 3,049 平方英尺. $84
2017-10-30 独户式别墅 Traditional 10806 Brendon Trails Court Spring, TX 77379 $379,000 4,254 平方英尺. 16,988 平方英尺. $89
2017-10-30 独户式别墅 Traditional 28818 Llano River Loop Spring, TX 77386 $154,900 1,312 平方英尺. 5,227 平方英尺. $118
2017-10-30 独户式别墅 Traditional 22514 Spence Park Court Spring, TX 77373 $176,900 1,767 平方英尺. 4,792 平方英尺. $100
2017-10-30 独户式别墅 Traditional 3402 Long Shadows Street Spring, TX 77380 $309,900 4,951 平方英尺. 12,197 平方英尺. $63
2017-10-30 独户式别墅 Traditional 20202 Stormy Pine Lane Spring, TX 77379 $373,900 3,478 平方英尺. 9,583 平方英尺. $108
2017-10-30 独户式别墅 Traditional 29211 Legends Beam Spring, TX 77386 $162,900 1,575 平方英尺. 5,227 平方英尺. $103
2017-10-30 独户式别墅 Traditional 71 Arbor Camp Circle Spring, TX 77389 $349,000 2,959 平方英尺. 7,841 平方英尺. $118
2017-10-30 独户式别墅 Traditional 8407 Glenn Haven Estates Circle Spring, TX 77379 $369,000 3,960 平方英尺. 11,761 平方英尺. $93
2017-10-30 独户式别墅 Traditional 31731 Dover Oaks Lane Spring, TX 77386 $244,900 2,496 平方英尺. 6,098 平方英尺. $98
2017-10-30 独户式别墅 Traditional 23414 Horseshoe Run Spring, TX 77373 $260,000 3,033 平方英尺. 9,583 平方英尺. $86
2017-10-29 独户式别墅 Traditional 5503 Maplegate Drive Spring, TX 77373 $145,000 1,649 平方英尺. 8,712 平方英尺. $88
2017-10-29 独户式别墅 French; Ranch 27684 Vivace Drive Spring, TX 77386 $412,038 2,551 平方英尺. 9,583 平方英尺. $162
2017-10-29 独户式别墅 Traditional 24111 Park Gwen Drive Spring, TX 77373 $184,900 2,613 平方英尺. 5,227 平方英尺. $71
2017-10-28 独户式别墅 Traditional 3007 Legends York Drive Spring, TX 77386 $204,000 2,738 平方英尺. $75
2017-10-28 独户式别墅 Traditional 4214 Maple Rapids Lane Spring, TX 77386 $599,000 4,507 平方英尺. 43,560 平方英尺. $133
2017-10-28 独户式别墅 Traditional 24027 Rosedale Oaks Drive Spring, TX 77389 $349,000 2,782 平方英尺. $125
2017-10-28 独户式别墅 Traditional 4035 Steep Woods Drive Spring, TX 77386 $445,000 3,549 平方英尺. 9,583 平方英尺. $125
2017-10-28 独户式别墅 Ranch 3418 Daniel Oak Circle Spring, TX 77389 $189,900 1,877 平方英尺. 6,534 平方英尺. $101
2017-10-28 独户式别墅 Traditional 5031 Amorgas Isle Drive Spring, TX 77388 $168,000 1,625 平方英尺. 6,098 平方英尺. $103
2017-10-28 独户式别墅 Traditional 3514 Galley Mist Drive Spring, TX 77388 $347,900 3,257 平方英尺. 7,405 平方英尺. $107
2017-10-28 独户式别墅 Traditional 23102 Magnolia Warbler Crest Lane Spring, TX 77389 $499,900 3,485 平方英尺. $143
2017-10-28 独户式别墅 Traditional 2110 Beacon Park Court Spring, TX 77373 $175,000 1,984 平方英尺. 5,227 平方英尺. $88
2017-10-28 独户式别墅 Traditional 5618 Conica Spring, TX 77379 $308,000 3,121 平方英尺. 11,326 平方英尺. $99
2017-10-28 独户式别墅 Other Style 17815 Asphodel Lane Spring, TX 77379 $299,900 2,815 平方英尺. 10,890 平方英尺. $107
2017-10-28 独户式别墅 Traditional 2214 Deer Valley Drive Spring, TX 77373 $178,000 2,200 平方英尺. 8,712 平方英尺. $81
2017-10-27 独户式别墅 Spanish 25534 Tuckahoe Lane Spring, TX 77373 $160,000 1,827 平方英尺. 13,939 平方英尺. $88
2017-10-27 独户式别墅 Traditional 4011 Amberlee Court Spring, TX 77386 $579,000 4,533 平方英尺. 43,560 平方英尺. $128
2017-10-27 独户式别墅 Traditional 3407 Acorn Way Spring, TX 77389 $154,900 1,584 平方英尺. 7,405 平方英尺. $98
2017-10-27 独户式别墅 Traditional 2406 Meadow Tree Lane Spring, TX 77388 $299,000 3,518 平方英尺. 10,019 平方英尺. $85
2017-10-27 独户式别墅 Traditional 20827 Louetta Oak Drive Spring, TX 77388 $224,900 2,533 平方英尺. 6,534 平方英尺. $89
2017-10-27 独户式别墅 Traditional 2706 Rabinow Court Spring, TX 77381 $440,000 2,242 平方英尺. 5,227 平方英尺. $196
2017-10-27 独户式别墅 Traditional 4443 Adonis Drive Spring, TX 77373 $135,990 1,729 平方英尺. 8,712 平方英尺. $79
2017-10-27 独户式别墅 Traditional 19518 Whitewood Drive Spring, TX 77373 $175,000 1,729 平方英尺. 13,939 平方英尺. $101
2017-10-27 独户式别墅 Ranch; Traditional 3735 Cypress Hill Drive Spring, TX 77388 $189,900 2,040 平方英尺. 9,583 平方英尺. $93
2017-10-27 独户式别墅 Spanish 25502 Clover Hills Circle Spring, TX 77380 $209,900 2,374 平方英尺. 13,939 平方英尺. $88
2017-10-27 独户式别墅 Traditional 22122 Peachglen Lane Spring, TX 77373 $114,900 1,219 平方英尺. 7,405 平方英尺. $94
2017-10-27 独户式别墅 Mediterranean 20007 Wyndham Rose Lane Spring, TX 77379 $875,000 5,186 平方英尺. 29,185 平方英尺. $169
2017-10-27 独户式别墅 Traditional 2507 Goldspring Lane Spring, TX 77373 $137,000 1,648 平方英尺. 7,841 平方英尺. $83
2017-10-27 独户式别墅 Traditional 24234 Azure Sky Drive Spring, TX 77373 $135,000 1,842 平方英尺. 6,970 平方英尺. $73
2017-10-27 独户式别墅 Traditional 29522 Legends Pine Lane Spring, TX 77386 $165,000 1,453 平方英尺. 5,227 平方英尺. $114
2017-10-27 独户式别墅 Traditional 17827 Green Elm Lane Spring, TX 77379 $430,000 4,156 平方英尺. 10,890 平方英尺. $103
2017-10-27 独户式别墅 Traditional 25218 Gaddis Oaks Drive Spring, TX 77389 $350,000 3,407 平方英尺. 14,375 平方英尺. $103
2017-10-27 独户式别墅 Traditional 1106 Windsor Chase Lane Spring, TX 77373 $349,900 3,613 平方英尺. 9,148 平方英尺. $97
2017-10-27 独户式别墅 Traditional 18015 Fernbluff Drive Spring, TX 77379 $250,000 2,798 平方英尺. 9,583 平方英尺. $89
2017-10-27 独户式别墅 Traditional 18615 Forest Bend Creek Way Spring, TX 77379 $650,000 5,400 平方英尺. 18,731 平方英尺. $120
2017-10-27 独户式别墅 Traditional 6523 Glenhill Drive Spring, TX 77389 $330,000 3,084 平方英尺. 12,632 平方英尺. $107
2017-10-27 独户式别墅 Traditional 6214 Flagg Ranch Drive Spring, TX 77388 $249,900 2,829 平方英尺. 5,663 平方英尺. $88
2017-10-27 独户式别墅 Traditional 23307 Wolfs Crossing Court Spring, TX 77373 $170,000 1,719 平方英尺. 6,098 平方英尺. $99
2017-10-27 独户式别墅 Traditional 25426 Evergreen Bend Spring, TX 77389 $265,000 2,700 平方英尺. 7,405 平方英尺. $98
2017-10-27 独户式别墅 Traditional 24210 Glen Loch Drive Spring, TX 77380 $132,600 2,049 平方英尺. 27,878 平方英尺. $65
2017-10-26 独户式别墅 Ranch 6723 Rustling Timbers Lane Spring, TX 77379 $224,900 1,999 平方英尺. 6,534 平方英尺. $113
2017-10-26 独户式别墅 Traditional 5622 Aberton Lane Spring, TX 77379 $167,900 1,537 平方英尺. 6,970 平方英尺. $109
2017-10-26 独户式别墅 Traditional 6802 Antique Cedar Spring, TX 77389 $399,000 3,236 平方英尺. 14,375 平方英尺. $123
2017-10-26 独户式别墅 Traditional 4830 Bridgemont Lane Spring, TX 77388 $159,900 1,894 平方英尺. 6,098 平方英尺. $84
2017-10-26 独户式别墅 Traditional 22519 Spring Crossing Drive Spring, TX 77373 $214,900 3,220 平方英尺. 4,792 平方英尺. $67
2017-10-26 独户式别墅 Traditional 30423 Emerson Creek Drive Spring, TX 77386 $202,000 1,832 平方英尺. 5,663 平方英尺. $110
2017-10-26 独户式别墅 Traditional 4306 Oxhill Road Spring, TX 77388 $209,000 2,656 平方英尺. 8,276 平方英尺. $79
2017-10-26 独户式别墅 Traditional 2438 Ligustrum Flower Drive Spring, TX 77388 $199,995 2,122 平方英尺. 6,534 平方英尺. $94
2017-10-26 独户式别墅 Traditional 3603 Smooth Brome Lane Spring, TX 77386 $479,000 4,115 平方英尺. 18,295 平方英尺. $116
2017-10-26 独户式别墅 Traditional 5111 Durham Knoll Lane Spring, TX 77389 $329,900 3,236 平方英尺. 6,098 平方英尺. $102
2017-10-26 独户式别墅 Traditional 1002 Sierra Springs Spring, TX 77373 $209,500 2,153 平方英尺. 6,970 平方英尺. $97
2017-10-26 独户式别墅 Traditional 25503 Brisk Spring Court Spring, TX 77373 $225,000 2,315 平方英尺. 8,276 平方英尺. $97
2017-10-26 独户式别墅 Traditional 20323 Louetta Reach Drive Spring, TX 77388 $219,000 2,393 平方英尺. 6,098 平方英尺. $92
2017-10-26 独户式别墅 Traditional 3607 Gable Landing Lane Spring, TX 77386 $269,900 2,476 平方英尺. 6,098 平方英尺. $109
2017-10-26 独户式别墅 Traditional 6507 St Marcella Drive Spring, TX 77379 $329,900 4,300 平方英尺. 6,970 平方英尺. $77
2017-10-26 独户式别墅 Traditional 21311 Glenbranch Drive Spring, TX 77388 $195,000 1,707 平方英尺. 7,841 平方英尺. $114
2017-10-26 独户式别墅 Traditional 55 W Horizon Ridge Place Spring, TX 77381 $725,000 4,280 平方英尺. 12,197 平方英尺. $169
2017-10-26 独户式别墅 Traditional 4102 Tee Tree Court Spring, TX 77386 $750,000 5,667 平方英尺. 45,302 平方英尺. $132
2017-10-26 独户式别墅 Traditional 2802 Spring Drive Spring, TX 77373 $129,900 1,342 平方英尺. 7,841 平方英尺. $97
2017-10-26 独户式别墅 Traditional 21127 Tangle Creek Lane Spring, TX 77388 $144,900 1,231 平方英尺. 6,098 平方英尺. $118
2017-10-26 独户式别墅 Traditional 21726 Tatton Crest Court Spring, TX 77388 $335,000 3,960 平方英尺. 9,583 平方英尺. $85
2017-10-26 独户式别墅 Traditional 27355 Pendleton Trace Drive Spring, TX 77386 $345,000 3,336 平方英尺. 6,098 平方英尺. $103
2017-10-26 独户式别墅 Traditional 9323 Prairie Trails Spring, TX 77379 $219,900 2,551 平方英尺. 8,276 平方英尺. $86
2017-10-26 独户式别墅 Traditional 3214 Legend Hills Court Spring, TX 77386 $170,000 1,788 平方英尺. 5,663 平方英尺. $95
2017-10-26 独户式别墅 Traditional 2018 Whitelaw Spring, TX 77386 $155,000 1,674 平方英尺. $93
2017-10-26 独户式别墅 Traditional 20923 Kenna Cove Lane Spring, TX 77379 $176,900 2,354 平方英尺. 5,663 平方英尺. $75
2017-10-26 独户式别墅 Traditional 22207 Weller Oaks Drive Spring, TX 77389 $259,990 2,887 平方英尺. $90
2017-10-26 独户式别墅 Traditional 2703 Linden Park Lane Spring, TX 77386 $274,000 2,974 平方英尺. 11,761 平方英尺. $92
2017-10-25 独户式别墅 Traditional 19111 Emory Trl Spring, TX 77388 $239,990 2,352 平方英尺. 7,841 平方英尺. $102
2017-10-25 独户式别墅 Traditional 19610 Valkyrie Drive Spring, TX 77379 $232,000 2,270 平方英尺. 6,098 平方英尺. $102
2017-10-25 独户式别墅 Mediterranean 7514 Noah Lane Spring, TX 77379 $699,999 5,361 平方英尺. 12,197 平方英尺. $131
2017-10-25 独户式别墅 Traditional 2318 Sun Shadow Lane Spring, TX 77386 $259,000 3,180 平方英尺. 8,712 平方英尺. $81
2017-10-25 独户式别墅 Contemporary/Modern 4911 Hidden Mill Drive Spring, TX 77389 $385,000 3,146 平方英尺. 6,098 平方英尺. $122
2017-10-25 独户式别墅 Traditional 3307 Linder Green Drive Spring, TX 77386 $310,000 3,448 平方英尺. 6,098 平方英尺. $90
2017-10-25 独户式别墅 Traditional 29530 Whitebrush Trace Drive Spring, TX 77386 $273,518 2,374 平方英尺. $115
2017-10-25 独户式别墅 Traditional 24534 Durham Trace Drive Spring, TX 77373 $176,000 1,821 平方英尺. 7,405 平方英尺. $97
2017-10-25 独户式别墅 Traditional 29519 Whitebrush Trace Drive Spring, TX 77386 $250,873 1,942 平方英尺. $129
2017-10-25 独户式别墅 Traditional 6239 Loblolly Vista Spring, TX 77389 $350,000 3,545 平方英尺. 7,405 平方英尺. $99
2017-10-25 独户式别墅 Traditional 4523 Sorrell Glen Court Spring, TX 77388 $349,900 3,300 平方英尺. 16,117 平方英尺. $106
2017-10-25 独户式别墅 Traditional 2007 Harmon Park Court Spring, TX 77373 $196,000 2,659 平方英尺. 5,227 平方英尺. $74
2017-10-25 独户式别墅 Traditional 4075 Northern Spruce Drive Spring, TX 77386 $364,995 2,681 平方英尺. 8,712 平方英尺. $136
2017-10-25 独户式别墅 Traditional 7518 Erinwood Drive Spring, TX 77379 $239,900 3,234 平方英尺. 9,583 平方英尺. $74
2017-10-25 独户式别墅 Traditional 31214 Maple Park Lane Spring, TX 77386 $499,990 4,115 平方英尺. $122
2017-10-25 独户式别墅 Traditional 23218 Summer Pine Drive Spring, TX 77373 $101,500 772 平方英尺. 6,534 平方英尺. $131
2017-10-25 独户式别墅 Contemporary/Modern; Traditional 22007 Bridgestone Pine Court Spring, TX 77388 $219,990 2,882 平方英尺. 8,712 平方英尺. $76
2017-10-24 独户式别墅 Spanish 25307 Terrain Park Drive Spring, TX 77373 $269,000 3,257 平方英尺. 6,534 平方英尺. $83
2017-10-24 独户式别墅 Traditional 28715 Stapleford Street Spring, TX 77386 $170,000 1,596 平方英尺. 6,534 平方英尺. $107
2017-10-24 独户式别墅 Mediterranean 23508 Twin Oaks Drive Spring, TX 77389 $1,600,000 9,823 平方英尺. 19,602 平方英尺. $163
2017-10-24 独户式别墅 Traditional 6618 Northridge Trace Spring, TX 77379 $190,000 1,918 平方英尺. 6,098 平方英尺. $99
2017-10-24 独户式别墅 Traditional 8303 Domer Drive Spring, TX 77379 $209,900 2,449 平方英尺. 9,583 平方英尺. $86
2017-10-24 独户式别墅 Traditional 3602 Chapel Square Spring, TX 77388 $159,900 1,696 平方英尺. 8,276 平方英尺. $94
2017-10-24 独户式别墅 Traditional 6538 Autumn Sunset Lane Spring, TX 77379 $189,999 2,427 平方英尺. 5,663 平方英尺. $78
2017-10-24 独户式别墅 Traditional 5814 Ashmere Lane Spring, TX 77379 $274,900 3,079 平方英尺. 9,148 平方英尺. $89
2017-10-24 独户式别墅 Traditional 28526 Carly Cove Lane Spring, TX 77386 $192,500 1,691 平方英尺. 6,970 平方英尺. $114
2017-10-24 独户式别墅 Traditional 19314 Puget Lane Spring, TX 77388 $474,900 4,347 平方英尺. 13,068 平方英尺. $109
2017-10-24 独户式别墅 Traditional 4033 Cypress Lake Drive Spring, TX 77388 $198,900 2,458 平方英尺. 9,583 平方英尺. $81
2017-10-24 独户式别墅 Traditional 146 Valera Ridge Place Spring, TX 77389 $799,900 4,477 平方英尺. 23,087 平方英尺. $179
2017-10-24 独户式别墅 Traditional 22435 High Point Pines Drive Spring, TX 77373 $183,000 2,409 平方英尺. 5,663 平方英尺. $76
2017-10-24 独户式别墅 Traditional 25718 Northcrest Drive Spring, TX 77389 $398,000 3,963 平方英尺. 8,276 平方英尺. $100
2017-10-24 独户式别墅 Traditional 606 Bending Bough Drive Spring, TX 77388 $266,000 2,882 平方英尺. 7,405 平方英尺. $92
2017-10-24 独户式别墅 Colonial 1002 Spring Meadow Drive Spring, TX 77373 $750,000 4,716 平方英尺. 105,851 平方英尺. $159
2017-10-24 独户式别墅 Traditional 3231 Harmony Creek Lane Spring, TX 77386 $317,600 3,070 平方英尺. $103
2017-10-24 独户式别墅 Traditional 6034 Craigway Road Spring, TX 77389 $399,500 3,771 平方英尺. 16,988 平方英尺. $106
2017-10-24 独户式别墅 Traditional 8123 Pheasant Glen Drive Spring, TX 77379 $300,000 3,861 平方英尺. 10,890 平方英尺. $78
2017-10-24 独户式别墅 Traditional 2513 Quartz Spring, TX 77386 $207,369 2,162 平方英尺. $96
2017-10-24 独户式别墅 Traditional 25611 Ridgebrook Circle Spring, TX 77380 $237,850 2,523 平方英尺. 9,583 平方英尺. $94
2017-10-24 独户式别墅 Traditional 5407 Roserock Lane Spring, TX 77379 $168,000 1,750 平方英尺. 6,534 平方英尺. $96
2017-10-24 独户式别墅 Traditional 4312 Silver Oak Spring, TX 77386 $346,740 2,389 平方英尺. 6,970 平方英尺. $145
2017-10-24 独户式别墅 Traditional 4222 Grand Oaks Wind Spring, TX 77386 $340,241 2,205 平方英尺. 7,405 平方英尺. $154
2017-10-24 独户式别墅 Traditional 6326 Ashley Manor Drive Spring, TX 77389 $249,900 2,168 平方英尺. 13,068 平方英尺. $115
2017-10-23 独户式别墅 Traditional 3650 Chapel Square Drive Spring, TX 77388 $212,000 2,671 平方英尺. 14,810 平方英尺. $79
2017-10-23 独户式别墅 Traditional 25022 Butterwick Drive Spring, TX 77389 $170,000 1,721 平方英尺. 9,148 平方英尺. $99
2017-10-23 独户式别墅 Traditional 2911 Ribbon Creek Way Spring, TX 77389 $172,000 2,320 平方英尺. 4,792 平方英尺. $74
2017-10-23 独户式别墅 Traditional 3223 Kentwood Drive Spring, TX 77380 $135,000 1,526 平方英尺. 8,276 平方英尺. $88
2017-10-23 独户式别墅 Traditional 18510 Glenn Haven Estates Drive Spring, TX 77379 $479,900 6,066 平方英尺. 12,197 平方英尺. $79
2017-10-23 独户式别墅 Traditional 29526 Whitebrush Trace Drive Spring, TX 77386 $286,750 2,750 平方英尺. $104
2017-10-23 独户式别墅 Traditional 29515 Whitebrush Trace Drive Spring, TX 77386 $272,737 2,531 平方英尺. $108
2017-10-23 独户式别墅 Traditional 22711 Timber Dust Circle Spring, TX 77373 $129,900 2,122 平方英尺. 6,098 平方英尺. $61
2017-10-23 独户式别墅 Traditional 4623 Countrymeadows Drive Spring, TX 77388 $349,900 4,015 平方英尺. 8,276 平方英尺. $87
2017-10-23 独户式别墅 Traditional 20931 Kenna Cove Lane Spring, TX 77379 $195,000 2,920 平方英尺. 6,098 平方英尺. $67
2017-10-23 独户式别墅 Traditional 1307 Wealden Forest Drive Spring, TX 77379 $299,900 2,738 平方英尺. 8,276 平方英尺. $110
2017-10-23 独户式别墅 Traditional 4110 Adonis Drive Spring, TX 77373 $117,500 1,195 平方英尺. 6,970 平方英尺. $98
2017-10-23 独户式别墅 Traditional 2710 Spring Bend Drive Spring, TX 77386 $250,000 2,829 平方英尺. 7,405 平方英尺. $88
2017-10-23 独户式别墅 Traditional 8303 Northbridge Drive Spring, TX 77379 $125,000 3,255 平方英尺. 14,375 平方英尺. $38
2017-10-22 独户式别墅 Traditional 30811 Legends Trace Drive Spring, TX 77386 $280,000 3,024 平方英尺. 8,712 平方英尺. $93
2017-10-22 独户式别墅 Traditional 1734 Bembridge Spring, TX 77386 $324,000 1,995 平方英尺. 28,750 平方英尺. $162
2017-10-22 独户式别墅 Traditional 21730 Stargrass Drive Spring, TX 77388 $95,000 708 平方英尺. 20,473 平方英尺. $134
2017-10-22 独户式别墅 Traditional 2506 Deer Valley Drive Spring, TX 77373 $155,000 1,870 平方英尺. 9,148 平方英尺. $83
2017-10-21 独户式别墅 Traditional 8015 Hertfordshire Drive Spring, TX 77379 $295,000 3,923 平方英尺. 9,583 平方英尺. $75
2017-10-21 独户式别墅 Traditional 25106 Wilderness Road Spring, TX 77380 $239,000 1,568 平方英尺. 16,117 平方英尺. $152
2017-10-21 独户式别墅 Traditional 2702 Broad Timbers Drive Spring, TX 77373 $249,990 2,250 平方英尺. 7,841 平方英尺. $111
2017-10-21 独户式别墅 Traditional 2822 Fox Mountain Drive Spring, TX 77386 $175,900 1,890 平方英尺. 5,663 平方英尺. $93
2017-10-21 独户式别墅 French; Traditional 18107 Trace Forest Spring, TX 77379 $334,900 4,372 平方英尺. 10,454 平方英尺. $77
2017-10-21 独户式别墅 Traditional 9927 Kirkstone Terrace Drive Spring, TX 77379 $427,500 3,990 平方英尺. 9,148 平方英尺. $107
2017-10-20 独户式别墅 Traditional 138 Lasting Spring Circle Spring, TX 77389 $278,900 2,137 平方英尺. 6,534 平方英尺. $131
2017-10-20 独户式别墅 Traditional 27406 Sgt Taylor Memorial Spring, TX 77386 $699,000 3,347 平方英尺. 43,560 平方英尺. $209
2017-10-20 独户式别墅 Traditional 8522 Delachase Circle Spring, TX 77379 $379,000 3,923 平方英尺. 10,890 平方英尺. $97
2017-10-20 独户式别墅 Traditional 2423 Ligustrum Flower Drive Spring, TX 77388 $195,000 2,116 平方英尺. 6,098 平方英尺. $92
2017-10-20 独户式别墅 Traditional 18215 Willow Court Spring, TX 77379 $269,900 3,295 平方英尺. 9,148 平方英尺. $82
2017-10-20 独户式别墅 Traditional 5718 Valley Scene Way Spring, TX 77379 $215,000 2,209 平方英尺. 6,534 平方英尺. $97
2017-10-20 独户式别墅 Ranch 22112 Sherrod Lane Spring, TX 77389 $305,500 1,971 平方英尺. 37,462 平方英尺. $155